Pagrindinis puslapis
METAR-TAF:

METAR-TAF

Oro uostai :

Grenchenas, Šveicarija

platuma: 47-10-53N, ilguma: 007-24-59E, Aukštis: 430 m

Dabartinis oras

Ataskaita buvo paskelbta 22 minutes, ne 21:20 UTC
Vėjas 10 kt iš Vakarų/Pietvakarių
Temperatūra 6°C
Drėgmė 93%
Slėgis 1010 hPa
Matomumas 10 km arba daugiau
Su prošvaistėmis ne aukštis 1500 ft

METAR: LSZG 272120Z AUTO 24010KT 9999 BKN015 06/05 Q1010

Laikas: 22:42 (21:42 UTC)

Prognozė

Ataskaita buvo paskelbta 7 valandos ir 17 minutes, ne 14:25 UTC
Prognozė galioja nuo 27 metu 15 UTC su 27 metu 24 UTC
Vėjas 4 kt iš Pietvakarių
Matomumas: 8000 m
Išsisklaidę debesys ne aukštis 1000 ft
Su prošvaistėmis ne aukštis 2800 ft
Tikimybė 30% :
Laikinai
nuo 27 metu 15 UTC su 27 metu 18 UTC
Matomumas: 4000 m
Su prošvaistėmis ne aukštis 1200 ft
rūkana
Tapsmas
nuo 27 metu 18 UTC su 27 metu 21 UTC
Vėjas 15 kt iš Pietvakarių su gūsio iki 28 kt
lietus

TAF: LSZG 271425Z 2715/2724 22004KT 8000 SCT010 BKN028 PROB30 TEMPO 2715/2718 4000 BR BKN012 BECMG 2718/2721 22015G28KT RA

Orai ataskaitas ir orų prognozės (METAR, TAF).

turimą stotys yra geltonos ir raudonos taškus žemėlapyje.

Perkelti pele per norėdami pamatyti stoties vardą.

Tada spustelėkite, norėdami matyti oro stebėjimo ir prognozės.

Norėdami pakeisti žemėlapį: spustelėkite ant žalios mygtukų su juodo kryžiaus žemyn,; žalią mygtuką su brūkšneliu, jei norite nutolinti; arba žalių rodyklių gretimoms žemėlapius.


METAR-TAF: